QTR5TY EGHQ-EGKK
Flight info
| Callsign | QTR5TY |
|---|---|
| Flight time | 0h 40m |
| Altitude | 25000 |
| Route | DAWLY DCT ELRIP DCT OTMET |
| Aircraft | A35K/H-SDE2E3GHIJ3J4J5LM1ORWXY/LB1D1 |
Departure
| Time | 2026-05-06 20:14 |
|---|---|
| Airport | Cornwall Airport Newquay (EGHQ) |
Arrival
| Time | 2026-05-06 20:54 |
|---|---|
| Airport | London Gatwick Airport (EGKK) |
| Time | Latitude | Longitude | Altitude | Speed | Heading |
|---|---|---|---|---|---|
| 2026-05-06 20:08 | 50.44755 | -5.00646 | 326 ft | 0 kts | 119° |
| 2026-05-06 20:11 | 50.44751 | -5.00637 | 323 ft | 1 kts | 120° |
| 2026-05-06 20:11 | 50.44741 | -5.00624 | 323 ft | 2 kts | 146° |
| 2026-05-06 20:11 | 50.44734 | -5.00625 | 323 ft | 0 kts | 181° |
| 2026-05-06 20:12 | 50.44703 | -5.00660 | 324 ft | 13 kts | 228° |
| 2026-05-06 20:12 | 50.44701 | -5.00678 | 324 ft | 1 kts | 266° |
| 2026-05-06 20:12 | 50.44707 | -5.00696 | 322 ft | 9 kts | 296° |
| 2026-05-06 20:13 | 50.44798 | -5.01015 | 317 ft | 28 kts | 265° |
| 2026-05-06 20:13 | 50.44699 | -5.01122 | 317 ft | 12 kts | 161° |
| 2026-05-06 20:13 | 50.44475 | -5.00596 | 327 ft | 121 kts | 121° |
| 2026-05-06 20:13 | 50.43886 | -4.99028 | 890 ft | 195 kts | 120° |
| 2026-05-06 20:14 | 50.43105 | -4.97012 | 2177 ft | 237 kts | 121° |
| 2026-05-06 20:14 | 50.42164 | -4.94575 | 3417 ft | 285 kts | 121° |
| 2026-05-06 20:14 | 50.40927 | -4.92027 | 5107 ft | 298 kts | 140° |
| 2026-05-06 20:14 | 50.39486 | -4.89783 | 7334 ft | 288 kts | 124° |
| 2026-05-06 20:15 | 50.38813 | -4.86870 | 9503 ft | 285 kts | 97° |
| 2026-05-06 20:15 | 50.38896 | -4.83757 | 11193 ft | 293 kts | 82° |
| 2026-05-06 20:15 | 50.39308 | -4.80498 | 12198 ft | 320 kts | 77° |
| 2026-05-06 20:15 | 50.39905 | -4.76974 | 13025 ft | 346 kts | 75° |
| 2026-05-06 20:16 | 50.40566 | -4.73266 | 14291 ft | 358 kts | 75° |
| 2026-05-06 20:16 | 50.41214 | -4.69429 | 15501 ft | 369 kts | 76° |
| 2026-05-06 20:16 | 50.41833 | -4.65461 | 16813 ft | 378 kts | 77° |
| 2026-05-06 20:16 | 50.42423 | -4.61394 | 18100 ft | 387 kts | 77° |
| 2026-05-06 20:17 | 50.43008 | -4.57180 | 18784 ft | 401 kts | 77° |
| 2026-05-06 20:17 | 50.43588 | -4.52889 | 19069 ft | 413 kts | 78° |
| 2026-05-06 20:17 | 50.44187 | -4.48396 | 19326 ft | 426 kts | 78° |
| 2026-05-06 20:17 | 50.44799 | -4.43792 | 19570 ft | 437 kts | 78° |
| 2026-05-06 20:18 | 50.45427 | -4.39073 | 19806 ft | 447 kts | 78° |
| 2026-05-06 20:18 | 50.46067 | -4.34264 | 19993 ft | 451 kts | 78° |
| 2026-05-06 20:18 | 50.46707 | -4.29447 | 20008 ft | 451 kts | 78° |
| 2026-05-06 20:18 | 50.47346 | -4.24634 | 20012 ft | 451 kts | 78° |
| 2026-05-06 20:19 | 50.47984 | -4.19811 | 20013 ft | 451 kts | 78° |
| 2026-05-06 20:19 | 50.48622 | -4.14982 | 20008 ft | 451 kts | 78° |
| 2026-05-06 20:19 | 50.49259 | -4.10136 | 20097 ft | 457 kts | 78° |
| 2026-05-06 20:19 | 50.49902 | -4.05229 | 20535 ft | 460 kts | 78° |
| 2026-05-06 20:20 | 50.50547 | -4.00287 | 21013 ft | 463 kts | 78° |
| 2026-05-06 20:20 | 50.51194 | -3.95308 | 21467 ft | 466 kts | 78° |
| 2026-05-06 20:20 | 50.51844 | -3.90299 | 21919 ft | 470 kts | 78° |
| 2026-05-06 20:20 | 50.52488 | -3.85309 | 22366 ft | 473 kts | 78° |
| 2026-05-06 20:21 | 50.53142 | -3.80226 | 22819 ft | 476 kts | 78° |
| 2026-05-06 20:21 | 50.53799 | -3.75102 | 23296 ft | 479 kts | 78° |
| 2026-05-06 20:21 | 50.54458 | -3.69943 | 23720 ft | 482 kts | 78° |
| 2026-05-06 20:21 | 50.55118 | -3.64761 | 24126 ft | 485 kts | 78° |
| 2026-05-06 20:22 | 50.55780 | -3.59538 | 24519 ft | 488 kts | 78° |
| 2026-05-06 20:22 | 50.56218 | -3.56070 | 24782 ft | 490 kts | 78° |
| 2026-05-06 20:22 | 50.57099 | -3.49074 | 24997 ft | 486 kts | 78° |
| 2026-05-06 20:22 | 50.57751 | -3.43862 | 25006 ft | 486 kts | 78° |
| 2026-05-06 20:23 | 50.58382 | -3.38626 | 25006 ft | 486 kts | 79° |
| 2026-05-06 20:23 | 50.58991 | -3.33389 | 25002 ft | 487 kts | 79° |
| 2026-05-06 20:23 | 50.59584 | -3.28210 | 25001 ft | 487 kts | 79° |
| 2026-05-06 20:23 | 50.60182 | -3.22963 | 25001 ft | 487 kts | 79° |
| 2026-05-06 20:24 | 50.60780 | -3.17724 | 25005 ft | 486 kts | 79° |
| 2026-05-06 20:24 | 50.61378 | -3.12483 | 25001 ft | 486 kts | 79° |
| 2026-05-06 20:24 | 50.61977 | -3.07242 | 25002 ft | 486 kts | 79° |
| 2026-05-06 20:24 | 50.62574 | -3.01995 | 25008 ft | 486 kts | 79° |
| 2026-05-06 20:25 | 50.63171 | -2.96753 | 25006 ft | 486 kts | 79° |
| 2026-05-06 20:25 | 50.63373 | -2.94981 | 25004 ft | 486 kts | 79° |
| 2026-05-06 20:25 | 50.64354 | -2.86262 | 25002 ft | 486 kts | 79° |
| 2026-05-06 20:25 | 50.64941 | -2.81012 | 25002 ft | 486 kts | 79° |
| 2026-05-06 20:26 | 50.65528 | -2.75753 | 24999 ft | 486 kts | 79° |
| 2026-05-06 20:26 | 50.66112 | -2.70494 | 24998 ft | 486 kts | 79° |
| 2026-05-06 20:26 | 50.66694 | -2.65231 | 24998 ft | 486 kts | 79° |
| 2026-05-06 20:26 | 50.67078 | -2.61745 | 24998 ft | 486 kts | 79° |
| 2026-05-06 20:27 | 50.67830 | -2.54803 | 24860 ft | 478 kts | 81° |
| 2026-05-06 20:27 | 50.68074 | -2.49601 | 24554 ft | 479 kts | 90° |
| 2026-05-06 20:27 | 50.67928 | -2.44327 | 24447 ft | 483 kts | 94° |
| 2026-05-06 20:27 | 50.67703 | -2.39047 | 24403 ft | 482 kts | 94° |
| 2026-05-06 20:28 | 50.67472 | -2.33777 | 24235 ft | 474 kts | 94° |
| 2026-05-06 20:28 | 50.67247 | -2.28632 | 23430 ft | 470 kts | 94° |
| 2026-05-06 20:28 | 50.67022 | -2.23481 | 22279 ft | 471 kts | 94° |
| 2026-05-06 20:28 | 50.66797 | -2.18360 | 21482 ft | 464 kts | 94° |
| 2026-05-06 20:29 | 50.66574 | -2.13325 | 21091 ft | 459 kts | 94° |
| 2026-05-06 20:29 | 50.66350 | -2.08289 | 21000 ft | 459 kts | 94° |
| 2026-05-06 20:29 | 50.66147 | -2.03276 | 20996 ft | 458 kts | 92° |
| 2026-05-06 20:29 | 50.66134 | -1.98318 | 20999 ft | 458 kts | 89° |
| 2026-05-06 20:30 | 50.66195 | -1.93297 | 21000 ft | 458 kts | 89° |
| 2026-05-06 20:30 | 50.66323 | -1.83259 | 21019 ft | 458 kts | 89° |
| 2026-05-06 20:30 | 50.66381 | -1.78236 | 21009 ft | 457 kts | 89° |
| 2026-05-06 20:31 | 50.66435 | -1.73307 | 20501 ft | 445 kts | 89° |
| 2026-05-06 20:31 | 50.66486 | -1.68437 | 19452 ft | 446 kts | 89° |
| 2026-05-06 20:31 | 50.66534 | -1.63550 | 18651 ft | 444 kts | 89° |
| 2026-05-06 20:31 | 50.66580 | -1.58697 | 18179 ft | 442 kts | 89° |
| 2026-05-06 20:32 | 50.66624 | -1.53847 | 18011 ft | 441 kts | 89° |
| 2026-05-06 20:32 | 50.66605 | -1.49075 | 18007 ft | 439 kts | 91° |
| 2026-05-06 20:32 | 50.66591 | -1.44270 | 17961 ft | 435 kts | 88° |
| 2026-05-06 20:32 | 50.66730 | -1.39588 | 17341 ft | 424 kts | 86° |
| 2026-05-06 20:33 | 50.66933 | -1.34937 | 16159 ft | 428 kts | 85° |
| 2026-05-06 20:33 | 50.67138 | -1.30260 | 15263 ft | 424 kts | 85° |
| 2026-05-06 20:33 | 50.67335 | -1.25653 | 14435 ft | 419 kts | 85° |
| 2026-05-06 20:33 | 50.67523 | -1.21097 | 13641 ft | 413 kts | 85° |
| 2026-05-06 20:34 | 50.67703 | -1.16628 | 13138 ft | 398 kts | 85° |
| 2026-05-06 20:34 | 50.67866 | -1.12432 | 13002 ft | 376 kts | 86° |
| 2026-05-06 20:34 | 50.68018 | -1.08443 | 12989 ft | 353 kts | 85° |
| 2026-05-06 20:34 | 50.68161 | -1.04687 | 12994 ft | 331 kts | 86° |
| 2026-05-06 20:35 | 50.68289 | -1.01176 | 12984 ft | 310 kts | 85° |
| 2026-05-06 20:35 | 50.68407 | -0.97855 | 12869 ft | 296 kts | 86° |
| 2026-05-06 20:35 | 50.68520 | -0.94703 | 12676 ft | 286 kts | 85° |
| 2026-05-06 20:35 | 50.68626 | -0.91614 | 12486 ft | 276 kts | 85° |
| 2026-05-06 20:36 | 50.68728 | -0.88616 | 12178 ft | 271 kts | 85° |
| 2026-05-06 20:36 | 50.68830 | -0.85657 | 11849 ft | 268 kts | 85° |
| 2026-05-06 20:36 | 50.68928 | -0.82767 | 11501 ft | 266 kts | 85° |
| 2026-05-06 20:36 | 50.69024 | -0.79847 | 11143 ft | 265 kts | 86° |
| 2026-05-06 20:37 | 50.69119 | -0.76953 | 10798 ft | 263 kts | 86° |
| 2026-05-06 20:37 | 50.69213 | -0.74079 | 10455 ft | 261 kts | 85° |
| 2026-05-06 20:37 | 50.69402 | -0.71230 | 10084 ft | 259 kts | 76° |
| 2026-05-06 20:37 | 50.69986 | -0.68555 | 9724 ft | 256 kts | 65° |
| 2026-05-06 20:38 | 50.70718 | -0.66042 | 9354 ft | 254 kts | 62° |
| 2026-05-06 20:38 | 50.71491 | -0.63545 | 8979 ft | 252 kts | 62° |
| 2026-05-06 20:38 | 50.72274 | -0.61067 | 8612 ft | 251 kts | 61° |
| 2026-05-06 20:38 | 50.73056 | -0.58615 | 8255 ft | 249 kts | 62° |
| 2026-05-06 20:39 | 50.73832 | -0.56185 | 8021 ft | 248 kts | 61° |
| 2026-05-06 20:39 | 50.74612 | -0.53748 | 7993 ft | 248 kts | 61° |
| 2026-05-06 20:39 | 50.75388 | -0.51323 | 7988 ft | 247 kts | 61° |
| 2026-05-06 20:39 | 50.76165 | -0.48892 | 8006 ft | 247 kts | 61° |
| 2026-05-06 20:40 | 50.76931 | -0.46495 | 7987 ft | 247 kts | 61° |
| 2026-05-06 20:40 | 50.77710 | -0.44059 | 7995 ft | 247 kts | 62° |
| 2026-05-06 20:40 | 50.78486 | -0.41630 | 8005 ft | 247 kts | 62° |
| 2026-05-06 20:40 | 50.79252 | -0.39227 | 7987 ft | 247 kts | 61° |
| 2026-05-06 20:41 | 50.80027 | -0.36793 | 8005 ft | 247 kts | 62° |
| 2026-05-06 20:41 | 50.80801 | -0.34362 | 7986 ft | 247 kts | 62° |
| 2026-05-06 20:41 | 50.81574 | -0.31932 | 7986 ft | 247 kts | 62° |
| 2026-05-06 20:41 | 50.82348 | -0.29496 | 8005 ft | 247 kts | 62° |
| 2026-05-06 20:42 | 50.83119 | -0.27068 | 7991 ft | 247 kts | 62° |
| 2026-05-06 20:42 | 50.83882 | -0.24661 | 8004 ft | 247 kts | 61° |
| 2026-05-06 20:42 | 50.84653 | -0.22227 | 8006 ft | 247 kts | 62° |
| 2026-05-06 20:42 | 50.85427 | -0.19799 | 7989 ft | 247 kts | 60° |
| 2026-05-06 20:43 | 50.89276 | -0.15190 | 7993 ft | 243 kts | 26° |
| 2026-05-06 20:43 | 50.90760 | -0.13972 | 7995 ft | 243 kts | 26° |
| 2026-05-06 20:44 | 50.92263 | -0.12743 | 7992 ft | 243 kts | 26° |
| 2026-05-06 20:44 | 50.93762 | -0.11516 | 7911 ft | 240 kts | 26° |
| 2026-05-06 20:44 | 50.95244 | -0.10301 | 7527 ft | 240 kts | 26° |
| 2026-05-06 20:44 | 50.96731 | -0.09085 | 7160 ft | 240 kts | 26° |
| 2026-05-06 20:45 | 50.98276 | -0.08110 | 6786 ft | 238 kts | 8° |
| 2026-05-06 20:45 | 50.99879 | -0.08355 | 6419 ft | 234 kts | 338° |
| 2026-05-06 20:45 | 51.01169 | -0.09877 | 6089 ft | 232 kts | 307° |
| 2026-05-06 20:45 | 51.01753 | -0.12243 | 5992 ft | 233 kts | 278° |
| 2026-05-06 20:46 | 51.01848 | -0.14786 | 5989 ft | 234 kts | 271° |
| 2026-05-06 20:46 | 51.01856 | -0.17382 | 5992 ft | 234 kts | 271° |
| 2026-05-06 20:46 | 51.01851 | -0.19944 | 5761 ft | 231 kts | 271° |
| 2026-05-06 20:46 | 51.01847 | -0.22501 | 5371 ft | 232 kts | 271° |
| 2026-05-06 20:47 | 51.02024 | -0.25044 | 5050 ft | 231 kts | 283° |
| 2026-05-06 20:47 | 51.02417 | -0.27537 | 5000 ft | 232 kts | 285° |
| 2026-05-06 20:47 | 51.02834 | -0.29999 | 4760 ft | 229 kts | 286° |
| 2026-05-06 20:47 | 51.03245 | -0.32412 | 4386 ft | 229 kts | 286° |
| 2026-05-06 20:48 | 51.03650 | -0.34854 | 4114 ft | 224 kts | 286° |
| 2026-05-06 20:48 | 51.04036 | -0.37205 | 3976 ft | 214 kts | 286° |
| 2026-05-06 20:48 | 51.04397 | -0.39428 | 3906 ft | 199 kts | 286° |
| 2026-05-06 20:48 | 51.04725 | -0.41480 | 3701 ft | 190 kts | 286° |
| 2026-05-06 20:49 | 51.05044 | -0.43495 | 3407 ft | 187 kts | 286° |
| 2026-05-06 20:49 | 51.05463 | -0.45436 | 3084 ft | 184 kts | 303° |
| 2026-05-06 20:49 | 51.06457 | -0.46654 | 2993 ft | 182 kts | 343° |
| 2026-05-06 20:49 | 51.07695 | -0.46573 | 2987 ft | 180 kts | 21° |
| 2026-05-06 20:50 | 51.08740 | -0.45487 | 2991 ft | 179 kts | 39° |
| 2026-05-06 20:50 | 51.09683 | -0.44193 | 2988 ft | 179 kts | 40° |
| 2026-05-06 20:50 | 51.10612 | -0.42868 | 2989 ft | 179 kts | 40° |
| 2026-05-06 20:50 | 51.11455 | -0.41500 | 2615 ft | 174 kts | 52° |
| 2026-05-06 20:51 | 51.11987 | -0.39758 | 2163 ft | 178 kts | 71° |
| 2026-05-06 20:51 | 51.12267 | -0.37836 | 2003 ft | 179 kts | 76° |
| 2026-05-06 20:51 | 51.12506 | -0.35948 | 1976 ft | 166 kts | 76° |
| 2026-05-06 20:51 | 51.12729 | -0.34218 | 1992 ft | 159 kts | 75° |
| 2026-05-06 20:52 | 51.12947 | -0.32470 | 1760 ft | 165 kts | 79° |
| 2026-05-06 20:52 | 51.13144 | -0.30678 | 1340 ft | 162 kts | 76° |
| 2026-05-06 20:52 | 51.13380 | -0.29030 | 1189 ft | 147 kts | 73° |
| 2026-05-06 20:52 | 51.13627 | -0.27464 | 981 ft | 146 kts | 74° |
| 2026-05-06 20:53 | 51.13862 | -0.25876 | 811 ft | 148 kts | 76° |
| 2026-05-06 20:53 | 51.14078 | -0.24286 | 651 ft | 146 kts | 77° |
| 2026-05-06 20:53 | 51.14296 | -0.22708 | 505 ft | 146 kts | 77° |
| 2026-05-06 20:53 | 51.14523 | -0.21141 | 315 ft | 145 kts | 77° |
| 2026-05-06 20:54 | 51.14737 | -0.19592 | 217 ft | 137 kts | 76° |
| 2026-05-06 20:54 | 51.14932 | -0.18544 | 219 ft | 71 kts | 53° |
| 2026-05-06 20:54 | 51.15030 | -0.18346 | 222 ft | 0 kts | 52° |
| 2026-05-06 20:55 | 51.15031 | -0.18344 | 222 ft | 2 kts | 52° |
| 2026-05-06 20:55 | 51.15049 | -0.18307 | 222 ft | 7 kts | 52° |
| 2026-05-06 20:55 | 51.15087 | -0.18227 | 220 ft | 11 kts | 52° |
| 2026-05-06 20:55 | 51.15117 | -0.18160 | 223 ft | 6 kts | 74° |
| 2026-05-06 20:56 | 51.15133 | -0.18099 | 222 ft | 6 kts | 49° |
| 2026-05-06 20:56 | 51.15151 | -0.18082 | 221 ft | 0 kts | 20° |
| 2026-05-06 20:57 | 51.15170 | -0.18072 | 221 ft | 6 kts | 20° |
| 2026-05-06 20:57 | 51.15196 | -0.18056 | 220 ft | 1 kts | 20° |
| 2026-05-06 20:57 | 51.15213 | -0.18055 | 218 ft | 3 kts | 351° |
| 2026-05-06 20:57 | 51.15256 | -0.18066 | 221 ft | 9 kts | 351° |
| 2026-05-06 20:58 | 51.15301 | -0.18085 | 218 ft | 10 kts | 330° |
| 2026-05-06 20:58 | 51.15406 | -0.18144 | 218 ft | 17 kts | 347° |
| 2026-05-06 20:58 | 51.15626 | -0.18210 | 215 ft | 24 kts | 12° |
| 2026-05-06 20:58 | 51.15728 | -0.18173 | 214 ft | 19 kts | 5° |
| 2026-05-06 20:59 | 51.15743 | -0.18164 | 211 ft | 0 kts | 23° |
| 2026-05-06 21:00 | 51.15750 | -0.18149 | 221 ft | 15 kts | 52° |
| 2026-05-06 21:00 | 51.15854 | -0.18061 | 217 ft | 12 kts | 346° |
| 2026-05-06 21:00 | 51.15881 | -0.18074 | 220 ft | 3 kts | 342° |
| 2026-05-06 21:01 | 51.15920 | -0.18094 | 219 ft | 9 kts | 342° |
| 2026-05-06 21:01 | 51.15957 | -0.18112 | 214 ft | 0 kts | 344° |
| 2026-05-06 21:02 | 51.15959 | -0.18113 | 215 ft | 2 kts | 344° |
| 2026-05-06 21:02 | 51.15993 | -0.18127 | 222 ft | 9 kts | 346° |
| 2026-05-06 21:02 | 51.16070 | -0.18152 | 216 ft | 8 kts | 1° |
| 2026-05-06 21:02 | 51.16099 | -0.18113 | 220 ft | 4 kts | 73° |
| 2026-05-06 21:03 | 51.16106 | -0.18049 | 218 ft | 4 kts | 79° |